Cleveland, Ohio
Traffic Map
Current Weather Conditions
Cleveland, Ohio
Broken Clouds
Broken Clouds
34°
Feels Like: 27°
Wind Chill: 27° Ceiling: 10000
Heat Index: 34° Visibility: 10mi
Dew Point: 21° Wind: 8mph
Humidity: 59% Direction: 190° (S)
Pressure: 30.04in Gusts: 0mph
Raw Report DataKBKL 171953Z 19007KT 10SM FEW031 BKN100 01/M06 A3004 RMK AO2 SLP177 T00111061
Traffic Incident Summary
Active as of:
Severity:
Category:
InformationThere was an issue retrieving the traffic information for this location. Please try a different location or try again shortly.
Advertisements